sensor_id;sensor_type;location;lat;lon;timestamp;pressure;altitude;pressure_sealevel;temperature;humidity
65897;BME280;52677;50.898;10.854;2024-03-08T00:01:50;98853.94;;;-1.84;100.00
65897;BME280;52677;50.898;10.854;2024-03-08T00:03:50;98859.16;;;-1.88;100.00
65897;BME280;52677;50.898;10.854;2024-03-08T00:05:52;98858.63;;;-1.90;100.00
65897;BME280;52677;50.898;10.854;2024-03-08T00:07:52;98855.66;;;-1.93;100.00
65897;BME280;52677;50.898;10.854;2024-03-08T00:09:53;98856.56;;;-1.98;100.00
65897;BME280;52677;50.898;10.854;2024-03-08T00:11:53;98847.66;;;-2.04;100.00
65897;BME280;52677;50.898;10.854;2024-03-08T00:13:53;98850.66;;;-2.05;100.00
65897;BME280;52677;50.898;10.854;2024-03-08T00:15:54;98854.16;;;-2.05;100.00
65897;BME280;52677;50.898;10.854;2024-03-08T00:17:54;98847.88;;;-2.00;100.00
65897;BME280;52677;50.898;10.854;2024-03-08T00:19:55;98852.75;;;-1.97;100.00
65897;BME280;52677;50.898;10.854;2024-03-08T00:21:55;98846.22;;;-1.96;100.00
65897;BME280;52677;50.898;10.854;2024-03-08T00:23:55;98853.03;;;-1.99;100.00
65897;BME280;52677;50.898;10.854;2024-03-08T00:25:56;98849.47;;;-1.99;100.00
65897;BME280;52677;50.898;10.854;2024-03-08T00:27:56;98855.50;;;-2.02;100.00
65897;BME280;52677;50.898;10.854;2024-03-08T00:30:00;98843.66;;;-2.11;100.00
65897;BME280;52677;50.898;10.854;2024-03-08T00:32:01;98843.13;;;-2.13;100.00
65897;BME280;52677;50.898;10.854;2024-03-08T00:34:01;98844.78;;;-2.17;100.00
65897;BME280;52677;50.898;10.854;2024-03-08T00:36:01;98847.78;;;-2.19;100.00
65897;BME280;52677;50.898;10.854;2024-03-08T00:38:01;98836.09;;;-2.14;100.00
65897;BME280;52677;50.898;10.854;2024-03-08T00:40:02;98835.56;;;-2.16;100.00
65897;BME280;52677;50.898;10.854;2024-03-08T00:42:03;98835.84;;;-2.18;100.00
65897;BME280;52677;50.898;10.854;2024-03-08T00:44:03;98834.22;;;-2.19;100.00
65897;BME280;52677;50.898;10.854;2024-03-08T00:46:04;98841.56;;;-2.19;100.00
65897;BME280;52677;50.898;10.854;2024-03-08T00:48:05;98823.41;;;-2.19;100.00
65897;BME280;52677;50.898;10.854;2024-03-08T00:50:06;98824.81;;;-2.27;100.00
65897;BME280;52677;50.898;10.854;2024-03-08T00:52:06;98826.50;;;-2.31;100.00
65897;BME280;52677;50.898;10.854;2024-03-08T00:54:10;98822.72;;;-2.35;100.00
65897;BME280;52677;50.898;10.854;2024-03-08T00:56:11;98824.91;;;-2.37;100.00
65897;BME280;52677;50.898;10.854;2024-03-08T00:58:12;98825.72;;;-2.36;100.00
65897;BME280;52677;50.898;10.854;2024-03-08T01:00:13;98821.69;;;-2.39;100.00
65897;BME280;52677;50.898;10.854;2024-03-08T01:02:13;98809.78;;;-2.43;100.00
65897;BME280;52677;50.898;10.854;2024-03-08T01:04:14;98813.09;;;-2.46;100.00
65897;BME280;52677;50.898;10.854;2024-03-08T01:06:14;98805.50;;;-2.49;100.00
65897;BME280;52677;50.898;10.854;2024-03-08T01:08:15;98802.78;;;-2.49;100.00
65897;BME280;52677;50.898;10.854;2024-03-08T01:10:15;98810.13;;;-2.49;100.00
65897;BME280;52677;50.898;10.854;2024-03-08T01:12:15;98804.44;;;-2.48;100.00
65897;BME280;52677;50.898;10.854;2024-03-08T01:14:16;98805.50;;;-2.49;100.00
65897;BME280;52677;50.898;10.854;2024-03-08T01:16:17;98801.47;;;-2.51;100.00
65897;BME280;52677;50.898;10.854;2024-03-08T01:18:17;98801.47;;;-2.51;100.00
65897;BME280;52677;50.898;10.854;2024-03-08T01:20:17;98796.34;;;-2.53;100.00
65897;BME280;52677;50.898;10.854;2024-03-08T01:22:18;98803.66;;;-2.53;100.00
65897;BME280;52677;50.898;10.854;2024-03-08T01:24:18;98787.63;;;-2.50;100.00
65897;BME280;52677;50.898;10.854;2024-03-08T01:26:18;98792.81;;;-2.53;100.00
65897;BME280;52677;50.898;10.854;2024-03-08T01:28:18;98777.13;;;-2.57;100.00
65897;BME280;52677;50.898;10.854;2024-03-08T01:30:19;98783.38;;;-2.56;100.00
65897;BME280;52677;50.898;10.854;2024-03-08T01:32:19;98792.56;;;-2.57;100.00
65897;BME280;52677;50.898;10.854;2024-03-08T01:34:20;98779.09;;;-2.62;100.00
65897;BME280;52677;50.898;10.854;2024-03-08T01:36:21;98782.59;;;-2.62;100.00
65897;BME280;52677;50.898;10.854;2024-03-08T01:38:21;98780.19;;;-2.63;100.00
65897;BME280;52677;50.898;10.854;2024-03-08T01:40:21;98766.72;;;-2.73;100.00
65897;BME280;52677;50.898;10.854;2024-03-08T01:42:22;98774.91;;;-2.84;100.00
65897;BME280;52677;50.898;10.854;2024-03-08T01:44:23;98774.97;;;-2.89;100.00
65897;BME280;52677;50.898;10.854;2024-03-08T01:46:24;98765.75;;;-2.88;100.00
65897;BME280;52677;50.898;10.854;2024-03-08T01:48:24;98766.56;;;-2.87;100.00
65897;BME280;52677;50.898;10.854;2024-03-08T01:50:25;98768.75;;;-2.89;100.00
65897;BME280;52677;50.898;10.854;2024-03-08T01:52:25;98771.78;;;-2.96;100.00
65897;BME280;52677;50.898;10.854;2024-03-08T01:54:26;98768.59;;;-3.03;100.00
65897;BME280;52677;50.898;10.854;2024-03-08T01:56:27;98766.47;;;-3.11;100.00
65897;BME280;52677;50.898;10.854;2024-03-08T01:58:27;98768.13;;;-3.15;100.00
65897;BME280;52677;50.898;10.854;2024-03-08T02:00:28;98761.34;;;-3.13;100.00
65897;BME280;52677;50.898;10.854;2024-03-08T02:02:31;98753.78;;;-3.16;100.00
65897;BME280;52677;50.898;10.854;2024-03-08T02:04:32;98757.06;;;-3.19;100.00
65897;BME280;52677;50.898;10.854;2024-03-08T02:06:33;98754.06;;;-3.17;100.00
65897;BME280;52677;50.898;10.854;2024-03-08T02:08:33;98751.63;;;-3.19;100.00
65897;BME280;52677;50.898;10.854;2024-03-08T02:10:34;98751.06;;;-3.16;100.00
65897;BME280;52677;50.898;10.854;2024-03-08T02:12:35;98747.06;;;-3.23;100.00
65897;BME280;52677;50.898;10.854;2024-03-08T02:14:36;98753.56;;;-3.24;100.00
65897;BME280;52677;50.898;10.854;2024-03-08T02:16:36;98735.19;;;-3.27;100.00
65897;BME280;52677;50.898;10.854;2024-03-08T02:18:38;98745.50;;;-3.29;100.00
65897;BME280;52677;50.898;10.854;2024-03-08T02:20:39;98749.56;;;-3.32;100.00
65897;BME280;52677;50.898;10.854;2024-03-08T02:22:39;98737.66;;;-3.31;100.00
65897;BME280;52677;50.898;10.854;2024-03-08T02:24:40;98731.41;;;-3.31;100.00
65897;BME280;52677;50.898;10.854;2024-03-08T02:26:41;98730.38;;;-3.35;100.00
65897;BME280;52677;50.898;10.854;2024-03-08T02:28:43;98733.59;;;-3.33;100.00
65897;BME280;52677;50.898;10.854;2024-03-08T02:30:48;98737.41;;;-3.40;100.00
65897;BME280;52677;50.898;10.854;2024-03-08T02:32:48;98726.16;;;-3.52;100.00
65897;BME280;52677;50.898;10.854;2024-03-08T02:34:48;98729.16;;;-3.53;100.00
65897;BME280;52677;50.898;10.854;2024-03-08T02:36:49;98722.94;;;-3.59;100.00
65897;BME280;52677;50.898;10.854;2024-03-08T02:38:49;98723.22;;;-3.60;100.00
65897;BME280;52677;50.898;10.854;2024-03-08T02:40:51;98726.50;;;-3.63;100.00
65897;BME280;52677;50.898;10.854;2024-03-08T02:42:52;98719.72;;;-3.61;100.00
65897;BME280;52677;50.898;10.854;2024-03-08T02:44:52;98723.53;;;-3.62;100.00
65897;BME280;52677;50.898;10.854;2024-03-08T02:46:53;98721.34;;;-3.65;100.00
65897;BME280;52677;50.898;10.854;2024-03-08T02:48:55;98714.91;;;-3.69;100.00
65897;BME280;52677;50.898;10.854;2024-03-08T02:50:55;98714.88;;;-3.64;100.00
65897;BME280;52677;50.898;10.854;2024-03-08T02:52:56;98714.34;;;-3.66;100.00
65897;BME280;52677;50.898;10.854;2024-03-08T02:54:56;98712.69;;;-3.62;100.00
65897;BME280;52677;50.898;10.854;2024-03-08T02:56:56;98722.16;;;-3.64;100.00
65897;BME280;52677;50.898;10.854;2024-03-08T02:58:57;98707.81;;;-3.65;100.00
65897;BME280;52677;50.898;10.854;2024-03-08T03:00:57;98712.19;;;-3.64;100.00
65897;BME280;52677;50.898;10.854;2024-03-08T03:02:57;98702.41;;;-3.65;100.00
65897;BME280;52677;50.898;10.854;2024-03-08T03:04:58;98704.59;;;-3.62;100.00
65897;BME280;52677;50.898;10.854;2024-03-08T03:06:58;98707.81;;;-3.60;100.00
65897;BME280;52677;50.898;10.854;2024-03-08T03:08:58;98705.09;;;-3.60;100.00
65897;BME280;52677;50.898;10.854;2024-03-08T03:10:59;98706.16;;;-3.56;100.00
65897;BME280;52677;50.898;10.854;2024-03-08T03:12:59;98697.22;;;-3.56;100.00
65897;BME280;52677;50.898;10.854;2024-03-08T03:14:59;98691.28;;;-3.58;100.00
65897;BME280;52677;50.898;10.854;2024-03-08T03:17:00;98696.41;;;-3.57;100.00
65897;BME280;52677;50.898;10.854;2024-03-08T03:19:00;98693.72;;;-3.57;100.00
65897;BME280;52677;50.898;10.854;2024-03-08T03:21:02;98700.28;;;-3.63;100.00
65897;BME280;52677;50.898;10.854;2024-03-08T03:23:07;98696.19;;;-3.65;100.00
65897;BME280;52677;50.898;10.854;2024-03-08T03:25:09;98691.38;;;-3.74;100.00
65897;BME280;52677;50.898;10.854;2024-03-08T03:27:09;98693.88;;;-3.82;100.00
65897;BME280;52677;50.898;10.854;2024-03-08T03:29:12;98699.03;;;-3.86;100.00
65897;BME280;52677;50.898;10.854;2024-03-08T03:31:13;98691.22;;;-3.87;100.00
65897;BME280;52677;50.898;10.854;2024-03-08T03:33:14;98693.66;;;-3.91;100.00
65897;BME280;52677;50.898;10.854;2024-03-08T03:35:20;98684.72;;;-3.91;100.00
65897;BME280;52677;50.898;10.854;2024-03-08T03:37:21;98692.31;;;-3.93;100.00
65897;BME280;52677;50.898;10.854;2024-03-08T03:39:22;98682.84;;;-3.91;100.00
65897;BME280;52677;50.898;10.854;2024-03-08T03:41:22;98688.53;;;-3.92;100.00
65897;BME280;52677;50.898;10.854;2024-03-08T03:43:23;98685.31;;;-3.94;100.00
65897;BME280;52677;50.898;10.854;2024-03-08T03:45:24;98688.00;;;-4.00;100.00
65897;BME280;52677;50.898;10.854;2024-03-08T03:47:24;98682.66;;;-4.05;100.00
65897;BME280;52677;50.898;10.854;2024-03-08T03:49:25;98684.25;;;-4.04;100.00
65897;BME280;52677;50.898;10.854;2024-03-08T03:51:25;98681.56;;;-4.09;100.00
65897;BME280;52677;50.898;10.854;2024-03-08T03:53:26;98684.03;;;-4.12;100.00
65897;BME280;52677;50.898;10.854;2024-03-08T03:55:27;98675.38;;;-4.14;100.00
65897;BME280;52677;50.898;10.854;2024-03-08T03:57:28;98678.06;;;-4.14;100.00
65897;BME280;52677;50.898;10.854;2024-03-08T03:59:29;98681.06;;;-4.16;100.00
65897;BME280;52677;50.898;10.854;2024-03-08T04:01:29;98679.16;;;-4.15;100.00
65897;BME280;52677;50.898;10.854;2024-03-08T04:03:29;98679.16;;;-4.15;100.00
65897;BME280;52677;50.898;10.854;2024-03-08T04:05:30;98672.44;;;-4.18;100.00
65897;BME280;52677;50.898;10.854;2024-03-08T04:07:31;98679.16;;;-4.15;100.00
65897;BME280;52677;50.898;10.854;2024-03-08T04:09:31;98678.06;;;-4.14;100.00
65897;BME280;52677;50.898;10.854;2024-03-08T04:11:32;98675.66;;;-4.16;100.00
65897;BME280;52677;50.898;10.854;2024-03-08T04:13:32;98676.75;;;-4.22;100.00
65897;BME280;52677;50.898;10.854;2024-03-08T04:15:32;98676.75;;;-4.22;100.00
65897;BME280;52677;50.898;10.854;2024-03-08T04:17:34;98680.84;;;-4.25;100.00
65897;BME280;52677;50.898;10.854;2024-03-08T04:19:38;98674.63;;;-4.20;100.00
65897;BME280;52677;50.898;10.854;2024-03-08T04:21:39;98673.53;;;-4.19;100.00
65897;BME280;52677;50.898;10.854;2024-03-08T04:23:39;98679.47;;;-4.22;100.00
65897;BME280;52677;50.898;10.854;2024-03-08T04:25:40;98673.00;;;-4.21;100.00
65897;BME280;52677;50.898;10.854;2024-03-08T04:27:42;98670.53;;;-4.12;100.00
65897;BME280;52677;50.898;10.854;2024-03-08T04:29:42;98662.19;;;-4.21;100.00
65897;BME280;52677;50.898;10.854;2024-03-08T04:31:43;98665.94;;;-4.22;100.00
65897;BME280;52677;50.898;10.854;2024-03-08T04:33:43;98656.28;;;-4.28;100.00
65897;BME280;52677;50.898;10.854;2024-03-08T04:35:45;98666.78;;;-4.21;100.00
65897;BME280;52677;50.898;10.854;2024-03-08T04:37:46;98658.41;;;-4.25;100.00
65897;BME280;52677;50.898;10.854;2024-03-08T04:39:46;98670.59;;;-4.28;100.00
65897;BME280;52677;50.898;10.854;2024-03-08T04:41:47;98658.44;;;-4.30;100.00
65897;BME280;52677;50.898;10.854;2024-03-08T04:43:47;98655.75;;;-4.30;100.00
65897;BME280;52677;50.898;10.854;2024-03-08T04:45:47;98664.38;;;-4.33;100.00
65897;BME280;52677;50.898;10.854;2024-03-08T04:47:48;98661.97;;;-4.35;100.00
65897;BME280;52677;50.898;10.854;2024-03-08T04:49:48;98662.25;;;-4.36;100.00
65897;BME280;52677;50.898;10.854;2024-03-08T04:51:50;98661.72;;;-4.38;100.00
65897;BME280;52677;50.898;10.854;2024-03-08T04:53:50;98666.31;;;-4.44;100.00
65897;BME280;52677;50.898;10.854;2024-03-08T04:55:51;98657.97;;;-4.53;100.00
65897;BME280;52677;50.898;10.854;2024-03-08T04:57:51;98663.38;;;-4.58;100.00
65897;BME280;52677;50.898;10.854;2024-03-08T04:59:51;98659.34;;;-4.60;100.00
65897;BME280;52677;50.898;10.854;2024-03-08T05:01:52;98657.19;;;-4.58;100.00
65897;BME280;52677;50.898;10.854;2024-03-08T05:03:52;98657.75;;;-4.61;100.00
65897;BME280;52677;50.898;10.854;2024-03-08T05:05:55;98655.84;;;-4.66;100.00
65897;BME280;52677;50.898;10.854;2024-03-08T05:07:56;98660.16;;;-4.65;100.00
65897;BME280;52677;50.898;10.854;2024-03-08T05:09:56;98652.63;;;-4.63;100.00
65897;BME280;52677;50.898;10.854;2024-03-08T05:11:57;98659.09;;;-4.64;100.00
65897;BME280;52677;50.898;10.854;2024-03-08T05:13:59;98660.97;;;-4.64;100.00
65897;BME280;52677;50.898;10.854;2024-03-08T05:15:59;98654.25;;;-4.67;100.00
65897;BME280;52677;50.898;10.854;2024-03-08T05:17:59;98654.81;;;-4.70;100.00
65897;BME280;52677;50.898;10.854;2024-03-08T05:20:00;98642.91;;;-4.74;100.00
65897;BME280;52677;50.898;10.854;2024-03-08T05:22:00;98654.53;;;-4.73;100.00
65897;BME280;52677;50.898;10.854;2024-03-08T05:24:00;98651.53;;;-4.72;100.00
65897;BME280;52677;50.898;10.854;2024-03-08T05:26:01;98655.88;;;-4.76;100.00
65897;BME280;52677;50.898;10.854;2024-03-08T05:28:01;98645.91;;;-4.81;100.00
65897;BME280;52677;50.898;10.854;2024-03-08T05:30:03;98654.84;;;-4.85;100.00
65897;BME280;52677;50.898;10.854;2024-03-08T05:32:04;98648.91;;;-4.92;100.00
65897;BME280;52677;50.898;10.854;2024-03-08T05:34:04;98650.00;;;-4.93;100.00
65897;BME280;52677;50.898;10.854;2024-03-08T05:36:05;98648.66;;;-4.96;100.00
65897;BME280;52677;50.898;10.854;2024-03-08T05:38:06;98648.66;;;-4.96;100.00
65897;BME280;52677;50.898;10.854;2024-03-08T05:40:07;98649.72;;;-4.97;100.00
65897;BME280;52677;50.898;10.854;2024-03-08T05:42:09;98652.97;;;-5.05;100.00
65897;BME280;52677;50.898;10.854;2024-03-08T05:44:10;98650.00;;;-4.98;100.00
65897;BME280;52677;50.898;10.854;2024-03-08T05:46:10;98651.59;;;-4.97;100.00
65897;BME280;52677;50.898;10.854;2024-03-08T05:48:13;98652.69;;;-4.98;100.00
65897;BME280;52677;50.898;10.854;2024-03-08T05:50:14;98649.75;;;-5.02;100.00
65897;BME280;52677;50.898;10.854;2024-03-08T05:52:16;98647.84;;;-4.96;100.00
65897;BME280;52677;50.898;10.854;2024-03-08T05:54:16;98642.97;;;-4.94;100.00
65897;BME280;52677;50.898;10.854;2024-03-08T05:56:16;98658.09;;;-4.93;100.00
65897;BME280;52677;50.898;10.854;2024-03-08T05:58:16;98645.94;;;-4.91;100.00
65897;BME280;52677;50.898;10.854;2024-03-08T06:00:17;98638.91;;;-4.97;100.00
65897;BME280;52677;50.898;10.854;2024-03-08T06:02:19;98640.81;;;-4.97;100.00
65897;BME280;52677;50.898;10.854;2024-03-08T06:04:19;98647.81;;;-4.91;100.00
65897;BME280;52677;50.898;10.854;2024-03-08T06:06:19;98655.63;;;-4.90;100.00
65897;BME280;52677;50.898;10.854;2024-03-08T06:08:21;98652.97;;;-4.95;100.00
65897;BME280;52677;50.898;10.854;2024-03-08T06:10:22;98655.09;;;-4.97;100.00
65897;BME280;52677;50.898;10.854;2024-03-08T06:12:22;98659.69;;;-4.97;100.00
65897;BME280;52677;50.898;10.854;2024-03-08T06:14:24;98664.53;;;-4.89;100.00
65897;BME280;52677;50.898;10.854;2024-03-08T06:16:24;98659.69;;;-4.92;100.00
65897;BME280;52677;50.898;10.854;2024-03-08T06:18:24;98662.69;;;-4.94;100.00
65897;BME280;52677;50.898;10.854;2024-03-08T06:20:25;98655.34;;;-4.88;100.00
65897;BME280;52677;50.898;10.854;2024-03-08T06:22:26;98658.09;;;-4.93;100.00
65897;BME280;52677;50.898;10.854;2024-03-08T06:24:26;98649.19;;;-4.94;100.00
65897;BME280;52677;50.898;10.854;2024-03-08T06:26:27;98655.34;;;-4.88;100.00
65897;BME280;52677;50.898;10.854;2024-03-08T06:28:28;98657.25;;;-4.84;100.00
65897;BME280;52677;50.898;10.854;2024-03-08T06:30:29;98656.94;;;-4.72;100.00
65897;BME280;52677;50.898;10.854;2024-03-08T06:32:29;98649.94;;;-4.63;100.00
65897;BME280;52677;50.898;10.854;2024-03-08T06:34:29;98655.84;;;-4.61;100.00
65897;BME280;52677;50.898;10.854;2024-03-08T06:36:29;98654.25;;;-4.62;100.00
65897;BME280;52677;50.898;10.854;2024-03-08T06:38:30;98660.97;;;-4.59;100.00
65897;BME280;52677;50.898;10.854;2024-03-08T06:40:30;98657.72;;;-4.56;100.00
65897;BME280;52677;50.898;10.854;2024-03-08T06:42:30;98648.50;;;-4.50;100.00
65897;BME280;52677;50.898;10.854;2024-03-08T06:44:35;98662.25;;;-4.41;100.00
65897;BME280;52677;50.898;10.854;2024-03-08T06:46:35;98654.69;;;-4.39;100.00
65897;BME280;52677;50.898;10.854;2024-03-08T06:48:36;98644.38;;;-4.32;100.00
65897;BME280;52677;50.898;10.854;2024-03-08T06:50:37;98641.69;;;-4.32;100.00
65897;BME280;52677;50.898;10.854;2024-03-08T06:52:37;98655.47;;;-4.39;100.00
65897;BME280;52677;50.898;10.854;2024-03-08T06:54:38;98655.78;;;-4.40;100.00
65897;BME280;52677;50.898;10.854;2024-03-08T06:56:39;98650.94;;;-4.43;100.00
65897;BME280;52677;50.898;10.854;2024-03-08T06:58:39;98648.78;;;-4.46;100.00
65897;BME280;52677;50.898;10.854;2024-03-08T07:00:40;98651.72;;;-4.43;100.00
65897;BME280;52677;50.898;10.854;2024-03-08T07:02:40;98641.16;;;-4.39;100.00
65897;BME280;52677;50.898;10.854;2024-03-08T07:04:41;98647.66;;;-4.35;100.00
65897;BME280;52677;50.898;10.854;2024-03-08T07:06:42;98649.28;;;-4.34;100.00
65897;BME280;52677;50.898;10.854;2024-03-08T07:08:42;98643.84;;;-4.29;100.00
65897;BME280;52677;50.898;10.854;2024-03-08T07:10:43;98640.56;;;-4.21;100.00
65897;BME280;52677;50.898;10.854;2024-03-08T07:12:45;98643.50;;;-4.12;100.00
65897;BME280;52677;50.898;10.854;2024-03-08T07:14:46;98632.94;;;-4.09;100.00
65897;BME280;52677;50.898;10.854;2024-03-08T07:16:47;98639.41;;;-4.05;100.00
65897;BME280;52677;50.898;10.854;2024-03-08T07:18:47;98642.91;;;-4.04;100.00
65897;BME280;52677;50.898;10.854;2024-03-08T07:20:47;98632.63;;;-4.02;100.00
65897;BME280;52677;50.898;10.854;2024-03-08T07:22:49;98633.97;;;-4.00;100.00
65897;BME280;52677;50.898;10.854;2024-03-08T07:24:52;98630.94;;;-3.93;100.00
65897;BME280;52677;50.898;10.854;2024-03-08T07:27:10;98637.41;;;-3.89;100.00
65897;BME280;52677;50.898;10.854;2024-03-08T07:29:12;98619.84;;;-3.86;100.00
65897;BME280;52677;50.898;10.854;2024-03-08T07:31:12;98632.50;;;-3.82;100.00
65897;BME280;52677;50.898;10.854;2024-03-08T07:33:15;98630.56;;;-3.76;100.00
65897;BME280;52677;50.898;10.854;2024-03-08T07:35:15;98624.06;;;-3.70;100.00
65897;BME280;52677;50.898;10.854;2024-03-08T07:37:18;98621.56;;;-3.67;100.00
65897;BME280;52677;50.898;10.854;2024-03-08T07:39:20;98613.66;;;-3.58;100.00
65897;BME280;52677;50.898;10.854;2024-03-08T07:41:23;98624.69;;;-3.49;100.00
65897;BME280;52677;50.898;10.854;2024-03-08T07:43:24;98613.25;;;-3.41;100.00
65897;BME280;52677;50.898;10.854;2024-03-08T07:45:24;98618.13;;;-3.38;100.00
65897;BME280;52677;50.898;10.854;2024-03-08T07:47:25;98612.13;;;-3.35;100.00
65897;BME280;52677;50.898;10.854;2024-03-08T07:49:26;98601.53;;;-3.31;100.00
65897;BME280;52677;50.898;10.854;2024-03-08T07:51:26;98598.50;;;-3.25;100.00
65897;BME280;52677;50.898;10.854;2024-03-08T07:53:26;98600.09;;;-3.19;100.00
65897;BME280;52677;50.898;10.854;2024-03-08T07:55:27;98596.25;;;-3.13;100.00
65897;BME280;52677;50.898;10.854;2024-03-08T07:57:29;98599.69;;;-3.07;100.00
65897;BME280;52677;50.898;10.854;2024-03-08T07:59:30;98589.63;;;-3.01;100.00
65897;BME280;52677;50.898;10.854;2024-03-08T08:01:30;98586.06;;;-2.97;100.00
65897;BME280;52677;50.898;10.854;2024-03-08T08:03:31;98593.84;;;-2.90;100.00
65897;BME280;52677;50.898;10.854;2024-03-08T08:05:31;98592.34;;;-2.77;100.00
65897;BME280;52677;50.898;10.854;2024-03-08T08:07:35;98595.22;;;-2.69;100.00
65897;BME280;52677;50.898;10.854;2024-03-08T08:09:36;98587.28;;;-2.60;100.00
65897;BME280;52677;50.898;10.854;2024-03-08T08:11:37;98583.41;;;-2.54;100.00
65897;BME280;52677;50.898;10.854;2024-03-08T08:13:38;98584.59;;;-2.41;100.00
65897;BME280;52677;50.898;10.854;2024-03-08T08:15:39;98582.63;;;-2.36;100.00
65897;BME280;52677;50.898;10.854;2024-03-08T08:17:39;98585.50;;;-2.27;100.00
65897;BME280;52677;50.898;10.854;2024-03-08T08:19:42;98581.03;;;-2.18;100.00
65897;BME280;52677;50.898;10.854;2024-03-08T08:21:43;98571.44;;;-2.10;100.00
65897;BME280;52677;50.898;10.854;2024-03-08T08:23:43;98569.13;;;-1.98;100.00
65897;BME280;52677;50.898;10.854;2024-03-08T08:25:43;98580.00;;;-1.84;100.00
65897;BME280;52677;50.898;10.854;2024-03-08T08:27:44;98576.13;;;-1.78;100.00
65897;BME280;52677;50.898;10.854;2024-03-08T08:29:44;98576.25;;;-1.70;100.00
65897;BME280;52677;50.898;10.854;2024-03-08T08:31:46;98568.31;;;-1.66;100.00
65897;BME280;52677;50.898;10.854;2024-03-08T08:33:47;98568.38;;;-1.52;100.00
65897;BME280;52677;50.898;10.854;2024-03-08T08:35:49;98573.13;;;-1.44;100.00
65897;BME280;52677;50.898;10.854;2024-03-08T08:37:53;98569.25;;;-1.38;100.00
65897;BME280;52677;50.898;10.854;2024-03-08T08:39:54;98568.06;;;-1.32;100.00
65897;BME280;52677;50.898;10.854;2024-03-08T08:41:54;98560.91;;;-1.28;100.00
65897;BME280;52677;50.898;10.854;2024-03-08T08:43:54;98558.31;;;-1.19;100.00
65897;BME280;52677;50.898;10.854;2024-03-08T08:45:55;98567.38;;;-1.10;100.00
65897;BME280;52677;50.898;10.854;2024-03-08T08:47:55;98564.28;;;-1.03;100.00
65897;BME280;52677;50.898;10.854;2024-03-08T08:49:56;98569.09;;;-1.00;100.00
65897;BME280;52677;50.898;10.854;2024-03-08T08:51:56;98558.47;;;-0.97;100.00
65897;BME280;52677;50.898;10.854;2024-03-08T08:53:58;98553.44;;;-0.90;100.00
65897;BME280;52677;50.898;10.854;2024-03-08T08:55:58;98548.59;;;-0.79;100.00
65897;BME280;52677;50.898;10.854;2024-03-08T08:58:01;98555.25;;;-0.71;100.00
65897;BME280;52677;50.898;10.854;2024-03-08T09:00:03;98543.84;;;-0.60;100.00
65897;BME280;52677;50.898;10.854;2024-03-08T09:02:07;98538.00;;;-0.53;100.00
65897;BME280;52677;50.898;10.854;2024-03-08T09:04:08;98532.66;;;-0.44;100.00
65897;BME280;52677;50.898;10.854;2024-03-08T09:06:11;98530.25;;;-0.32;100.00
65897;BME280;52677;50.898;10.854;2024-03-08T09:08:11;98531.13;;;-0.23;100.00
65897;BME280;52677;50.898;10.854;2024-03-08T09:10:13;98519.28;;;-0.05;100.00
65897;BME280;52677;50.898;10.854;2024-03-08T09:12:14;98518.31;;;0.14;100.00
65897;BME280;52677;50.898;10.854;2024-03-08T09:14:14;98510.03;;;0.19;100.00
65897;BME280;52677;50.898;10.854;2024-03-08T09:16:15;98507.47;;;0.22;100.00
65897;BME280;52677;50.898;10.854;2024-03-08T09:18:16;98504.81;;;0.31;100.00
65897;BME280;52677;50.898;10.854;2024-03-08T09:20:16;98503.97;;;0.44;100.00
65897;BME280;52677;50.898;10.854;2024-03-08T09:22:17;98495.22;;;0.56;100.00
65897;BME280;52677;50.898;10.854;2024-03-08T09:24:18;98491.16;;;0.76;100.00
65897;BME280;52677;50.898;10.854;2024-03-08T09:26:19;98497.50;;;0.94;100.00
65897;BME280;52677;50.898;10.854;2024-03-08T09:28:19;98490.19;;;1.11;100.00
65897;BME280;52677;50.898;10.854;2024-03-08T09:30:20;98482.53;;;1.31;100.00
65897;BME280;52677;50.898;10.854;2024-03-08T09:32:21;98486.94;;;1.58;100.00
65897;BME280;52677;50.898;10.854;2024-03-08T09:34:22;98472.50;;;1.66;100.00
65897;BME280;52677;50.898;10.854;2024-03-08T09:36:23;98477.31;;;1.86;100.00
65897;BME280;52677;50.898;10.854;2024-03-08T09:38:24;98475.25;;;1.92;100.00
65897;BME280;52677;50.898;10.854;2024-03-08T09:40:25;98464.81;;;2.03;100.00
65897;BME280;52677;50.898;10.854;2024-03-08T09:42:26;98470.56;;;2.18;100.00
65897;BME280;52677;50.898;10.854;2024-03-08T09:44:26;98465.59;;;2.20;100.00
65897;BME280;52677;50.898;10.854;2024-03-08T09:46:28;98463.81;;;2.24;100.00
65897;BME280;52677;50.898;10.854;2024-03-08T09:48:29;98460.44;;;2.28;100.00
65897;BME280;52677;50.898;10.854;2024-03-08T09:50:29;98453.50;;;2.39;100.00
65897;BME280;52677;50.898;10.854;2024-03-08T09:52:30;98458.66;;;2.40;100.00
65897;BME280;52677;50.898;10.854;2024-03-08T09:54:32;98442.06;;;2.54;100.00
65897;BME280;52677;50.898;10.854;2024-03-08T09:56:34;98441.69;;;2.64;100.00
65897;BME280;52677;50.898;10.854;2024-03-08T09:58:35;98437.19;;;2.68;100.00
65897;BME280;52677;50.898;10.854;2024-03-08T10:00:35;98442.34;;;2.70;100.00
65897;BME280;52677;50.898;10.854;2024-03-08T10:02:36;98437.50;;;2.75;100.00
65897;BME280;52677;50.898;10.854;2024-03-08T10:04:36;98429.44;;;2.79;100.00
65897;BME280;52677;50.898;10.854;2024-03-08T10:06:37;98441.78;;;2.85;100.00
65897;BME280;52677;50.898;10.854;2024-03-08T10:08:37;98442.56;;;2.94;100.00
65897;BME280;52677;50.898;10.854;2024-03-08T10:10:37;98422.88;;;3.09;100.00
65897;BME280;52677;50.898;10.854;2024-03-08T10:12:38;98426.34;;;3.19;100.00
65897;BME280;52677;50.898;10.854;2024-03-08T10:14:40;98416.22;;;3.19;100.00
65897;BME280;52677;50.898;10.854;2024-03-08T10:16:41;98426.69;;;3.17;100.00
65897;BME280;52677;50.898;10.854;2024-03-08T10:18:41;98421.28;;;3.29;100.00
65897;BME280;52677;50.898;10.854;2024-03-08T10:20:42;98419.19;;;3.35;100.00
65897;BME280;52677;50.898;10.854;2024-03-08T10:22:43;98410.00;;;3.40;100.00
65897;BME280;52677;50.898;10.854;2024-03-08T10:24:48;98411.91;;;3.39;100.00